Time;durP1;ratioP1;P1;durP2;ratioP2;P2;SDS_P1;SDS_P2;PMS_P1;PMS_P2;Temp;Humidity;BMP_temperature;BMP_pressure;BME280_temperature;BME280_humidity;BME280_pressure;Samples;Min_cycle;Max_cycle;Signal;HPM_P1;HPM_P2
2021/01/20 00:02:01;;;;;;;14.53;12.30;;;;;;;-1.29;100.00;97564.56;5009726;28;20229;-74
2021/01/20 00:04:28;;;;;;;14.30;12.03;;;;;;;-1.13;100.00;97556.59;5004280;28;20303;-75
2021/01/20 00:06:55;;;;;;;16.67;13.30;;;;;;;-1.10;100.00;97563.34;5007575;28;20201;-74
2021/01/20 00:09:22;;;;;;;15.50;12.70;;;;;;;-1.21;100.00;97557.09;5006984;28;20516;-73
2021/01/20 00:11:49;;;;;;;16.10;13.47;;;;;;;-1.27;100.00;97556.66;5007511;28;20229;-74
2021/01/20 00:14:16;;;;;;;18.37;14.40;;;;;;;-1.37;100.00;97554.66;5006155;28;20225;-75
2021/01/20 00:16:44;;;;;;;15.50;13.80;;;;;;;-1.47;100.00;97549.22;5005471;28;20208;-75
2021/01/20 00:19:13;;;;;;;18.93;14.10;;;;;;;-1.36;100.00;97555.50;5005381;28;20703;-75
2021/01/20 00:21:40;;;;;;;16.30;12.60;;;;;;;-1.48;100.00;97544.97;5004212;28;20211;-75
2021/01/20 00:24:07;;;;;;;15.57;13.13;;;;;;;-1.48;100.00;97544.97;5004653;28;20205;-76
2021/01/20 00:26:35;;;;;;;17.07;13.17;;;;;;;-1.51;100.00;97539.97;5007980;28;20205;-75
2021/01/20 00:29:02;;;;;;;16.17;13.60;;;;;;;-1.49;100.00;97534.69;4999959;28;20440;-75
2021/01/20 00:31:28;;;;;;;18.57;14.47;;;;;;;-1.51;100.00;97537.38;5002937;28;20697;-74
2021/01/20 00:33:56;;;;;;;16.30;14.53;;;;;;;-1.34;100.00;97541.47;5006532;28;20502;-75
2021/01/20 00:36:23;;;;;;;15.60;12.43;;;;;;;-1.26;100.00;97537.53;5008342;28;20612;-74
2021/01/20 00:38:50;;;;;;;13.97;12.57;;;;;;;-1.38;100.00;97540.00;5005603;28;20731;-74
2021/01/20 00:41:17;;;;;;;13.97;12.00;;;;;;;-1.37;100.00;97541.66;5006409;28;20220;-76
2021/01/20 00:43:44;;;;;;;13.50;12.10;;;;;;;-1.36;100.00;97548.53;5002360;28;20999;-74
2021/01/20 00:46:11;;;;;;;12.97;11.67;;;;;;;-1.44;100.00;97544.75;5004921;28;20448;-74
2021/01/20 00:48:39;;;;;;;13.90;11.93;;;;;;;-1.49;100.00;97542.47;5005354;28;20278;-75
2021/01/20 00:51:06;;;;;;;11.63;10.63;;;;;;;-1.48;100.00;97536.34;5009304;28;20446;-74
2021/01/20 00:53:35;;;;;;;13.07;11.10;;;;;;;-1.63;100.00;97540.75;5006617;28;20716;-75
2021/01/20 00:56:02;;;;;;;12.90;11.70;;;;;;;-1.58;100.00;97546.50;5007384;28;20196;-74
2021/01/20 00:58:29;;;;;;;13.17;11.77;;;;;;;-1.73;100.00;97543.09;5004695;28;20231;-74
2021/01/20 01:00:56;;;;;;;12.87;11.67;;;;;;;-1.85;100.00;97555.09;5008005;28;20205;-74
2021/01/20 01:03:23;;;;;;;12.33;11.13;;;;;;;-1.72;100.00;97547.38;5015844;28;20228;-75
2021/01/20 01:05:50;;;;;;;11.93;10.73;;;;;;;-1.64;100.00;97536.50;5008721;28;20579;-74
2021/01/20 01:08:17;;;;;;;12.70;11.43;;;;;;;-1.84;100.00;97548.97;5004782;28;22438;-74
2021/01/20 01:10:45;;;;;;;11.83;10.73;;;;;;;-1.77;100.00;97539.88;5002328;28;20447;-74
2021/01/20 01:13:12;;;;;;;11.60;10.47;;;;;;;-1.79;100.00;97536.53;5003278;28;20388;-74
2021/01/20 01:15:39;;;;;;;13.57;11.90;;;;;;;-1.76;100.00;97544.13;5007382;28;20240;-74
2021/01/20 01:18:05;;;;;;;11.23;9.73;;;;;;;-1.85;100.00;97534.31;4998766;28;20208;-75
2021/01/20 01:20:33;;;;;;;12.50;11.20;;;;;;;-1.73;100.00;97535.31;5011628;28;20216;-75
2021/01/20 01:23:00;;;;;;;10.83;9.73;;;;;;;-1.66;100.00;97528.78;4997500;28;20260;-74
2021/01/20 01:25:27;;;;;;;13.03;10.90;;;;;;;-1.68;100.00;97532.44;5009308;28;20576;-74
2021/01/20 01:27:55;;;;;;;11.57;10.47;;;;;;;-1.60;100.00;97532.78;4992539;28;20465;-74
2021/01/20 01:30:23;;;;;;;11.30;10.10;;;;;;;-1.62;100.00;97532.03;4999764;28;20453;-74
2021/01/20 01:32:50;;;;;;;10.17;9.23;;;;;;;-1.75;100.00;97532.81;4994036;28;20225;-74
2021/01/20 01:35:17;;;;;;;10.03;9.17;;;;;;;-1.73;100.00;97529.28;5005788;28;20506;-74
2021/01/20 01:37:44;;;;;;;11.73;10.53;;;;;;;-1.85;100.00;97536.94;5003473;28;20585;-75
2021/01/20 01:40:11;;;;;;;12.17;10.93;;;;;;;-1.66;100.00;97531.38;5000320;28;20205;-74
2021/01/20 01:42:38;;;;;;;11.70;9.60;;;;;;;-1.72;100.00;97536.97;5006311;28;20368;-75
2021/01/20 01:45:08;;;;;;;10.10;9.00;;;;;;;-1.72;100.00;97530.94;5006922;28;20400;-74
2021/01/20 01:47:35;;;;;;;10.20;9.27;;;;;;;-1.70;100.00;97529.91;5011737;28;20206;-76
2021/01/20 01:50:03;;;;;;;10.47;9.37;;;;;;;-1.88;100.00;97524.13;5014908;28;20216;-74
2021/01/20 01:52:30;;;;;;;11.90;9.00;;;;;;;-1.87;100.00;97527.59;5007522;28;20225;-74
2021/01/20 01:54:57;;;;;;;11.63;10.63;;;;;;;-1.90;100.00;97529.41;5002860;28;20221;-74
2021/01/20 01:57:24;;;;;;;12.73;10.80;;;;;;;-1.91;100.00;97526.94;4998187;28;20455;-74
2021/01/20 01:59:51;;;;;;;14.20;9.70;;;;;;;-2.02;100.00;97526.78;5010442;28;20205;-74
2021/01/20 02:02:19;;;;;;;11.37;9.93;;;;;;;-2.05;100.00;97520.84;5002030;28;20232;-75
2021/01/20 02:04:46;;;;;;;11.13;10.03;;;;;;;-1.93;100.00;97524.41;5006641;28;20212;-74
2021/01/20 02:07:26;;;;;;;12.20;10.30;;;;;;;-1.91;100.00;97519.13;5009743;28;21007;-75
2021/01/20 02:09:53;;;;;;;10.00;9.10;;;;;;;-1.97;100.00;97517.75;5009304;28;20470;-75
2021/01/20 02:12:49;;;;;;;10.63;8.77;;;;;;;-1.94;100.00;97514.13;5010504;28;20593;-74
2021/01/20 02:15:20;;;;;;;9.70;8.70;;;;;;;-2.04;100.00;97519.06;4997792;28;20236;-75
2021/01/20 02:17:50;;;;;;;9.43;8.60;;;;;;;-2.18;100.00;97514.75;5005386;28;20444;-74
2021/01/20 02:20:34;;;;;;;9.73;8.73;;;;;;;-2.13;100.00;97511.88;5017121;28;20828;-75
2021/01/20 02:23:03;;;;;;;8.97;8.07;;;;;;;-2.20;100.00;97504.47;5001633;28;20987;-75
2021/01/20 02:25:54;;;;;;;9.93;8.93;;;;;;;-2.22;100.00;97506.31;5003618;28;20649;-74
2021/01/20 02:28:24;;;;;;;10.20;8.40;;;;;;;-2.04;100.00;97504.34;5006613;28;20207;-75
2021/01/20 02:30:52;;;;;;;9.53;8.73;;;;;;;-1.92;100.00;97504.47;5007869;28;20200;-74
2021/01/20 02:33:21;;;;;;;8.87;8.03;;;;;;;-2.02;100.00;97495.63;5011753;28;20225;-75
2021/01/20 02:35:51;;;;;;;8.80;8.03;;;;;;;-1.94;100.00;97494.19;5012816;28;20236;-75
2021/01/20 02:38:18;;;;;;;8.87;7.97;;;;;;;-1.99;100.00;97493.66;5010841;28;20201;-75
2021/01/20 02:40:45;;;;;;;9.90;8.33;;;;;;;-1.97;100.00;97491.78;5003745;28;20455;-73
2021/01/20 02:43:12;;;;;;;8.80;7.90;;;;;;;-1.96;100.00;97495.22;5008785;28;20481;-75
2021/01/20 02:45:40;;;;;;;8.97;7.87;;;;;;;-1.85;100.00;97484.97;5014207;28;20533;-75
2021/01/20 02:48:08;;;;;;;9.63;8.27;;;;;;;-1.90;100.00;97492.22;5004313;28;20219;-74
2021/01/20 02:50:35;;;;;;;8.30;7.50;;;;;;;-1.93;100.00;97493.25;5011153;28;20452;-74
2021/01/20 02:53:07;;;;;;;9.53;7.90;;;;;;;-1.88;100.00;97489.56;4996797;28;20473;-74
2021/01/20 02:55:34;;;;;;;9.67;7.50;;;;;;;-1.88;100.00;97485.16;5007857;28;20605;-74
2021/01/20 02:58:04;;;;;;;8.27;7.47;;;;;;;-1.84;100.00;97489.22;5002453;28;20212;-74
2021/01/20 03:00:31;;;;;;;8.93;8.03;;;;;;;-1.82;100.00;97489.16;5008290;28;20456;-74
2021/01/20 03:03:01;;;;;;;8.83;7.87;;;;;;;-1.75;100.00;97487.81;5005572;28;20234;-76
2021/01/20 03:05:30;;;;;;;7.80;7.10;;;;;;;-1.75;100.00;97485.22;5000721;28;20469;-74
2021/01/20 03:07:57;;;;;;;7.57;6.87;;;;;;;-1.81;100.00;97489.03;5007686;28;20212;-74
2021/01/20 03:10:24;;;;;;;8.60;7.70;;;;;;;-1.82;100.00;97491.75;5002169;28;20202;-74
2021/01/20 03:12:51;;;;;;;8.00;7.30;;;;;;;-1.84;100.00;97483.22;5007849;28;20253;-74
2021/01/20 03:15:22;;;;;;;9.57;7.03;;;;;;;-1.91;100.00;97481.00;5005111;28;20233;-74
2021/01/20 03:17:49;;;;;;;8.63;7.60;;;;;;;-1.82;100.00;97489.16;5003824;28;20219;-74
2021/01/20 03:20:16;;;;;;;10.63;7.37;;;;;;;-1.87;100.00;97486.84;4994050;28;20880;-75
2021/01/20 03:22:44;;;;;;;7.40;6.77;;;;;;;-1.72;100.00;97481.56;4996221;28;20232;-74
2021/01/20 03:25:12;;;;;;;8.00;7.03;;;;;;;-1.81;100.00;97478.66;4991898;28;20440;-74
2021/01/20 03:27:39;;;;;;;8.67;7.07;;;;;;;-1.81;100.00;97470.84;5005656;28;20789;-74
2021/01/20 03:30:07;;;;;;;7.20;6.60;;;;;;;-1.82;100.00;97471.78;5011212;28;20448;-75
2021/01/20 03:32:35;;;;;;;7.23;6.23;;;;;;;-1.66;100.00;97473.41;5004994;28;20232;-74
2021/01/20 03:35:03;;;;;;;7.40;6.70;;;;;;;-1.68;100.00;97467.47;5001539;28;20315;-74
2021/01/20 03:37:30;;;;;;;7.23;6.63;;;;;;;-1.70;100.00;97467.56;4999579;28;20711;-75
2021/01/20 03:39:58;;;;;;;7.57;6.87;;;;;;;-1.65;100.00;97464.69;5005321;28;20681;-74
2021/01/20 03:42:25;;;;;;;7.00;6.30;;;;;;;-1.71;100.00;97471.09;5002831;28;20225;-74
2021/01/20 03:44:52;;;;;;;7.67;6.90;;;;;;;-1.61;100.00;97466.13;5010501;28;20208;-74
2021/01/20 03:47:19;;;;;;;6.90;6.20;;;;;;;-1.64;100.00;97463.75;5005483;28;21179;-74
2021/01/20 03:49:46;;;;;;;6.80;6.23;;;;;;;-1.56;100.00;97464.06;5000906;28;20263;-75
2021/01/20 03:52:16;;;;;;;7.07;6.47;;;;;;;-1.50;100.00;97448.06;4999372;28;20633;-75
2021/01/20 03:54:43;;;;;;;5.90;5.40;;;;;;;-1.56;100.00;97460.63;5002298;28;20217;-74
2021/01/20 03:57:12;;;;;;;6.30;5.70;;;;;;;-1.55;100.00;97454.50;5006478;28;20468;-74
2021/01/20 03:59:39;;;;;;;7.33;6.73;;;;;;;-1.65;100.00;97464.69;4999938;28;20217;-75
2021/01/20 04:02:06;;;;;;;6.97;6.03;;;;;;;-1.53;100.00;97457.81;5003570;28;20243;-74
2021/01/20 04:04:33;;;;;;;6.00;5.50;;;;;;;-1.60;100.00;97455.63;5004746;28;21058;-75
2021/01/20 04:07:02;;;;;;;6.00;5.40;;;;;;;-1.63;100.00;97455.00;5004514;28;20209;-75
2021/01/20 04:09:29;;;;;;;6.47;5.97;;;;;;;-1.63;100.00;97457.63;5006253;28;20959;-74
2021/01/20 04:11:56;;;;;;;5.87;5.20;;;;;;;-1.62;100.00;97461.88;5000308;28;20486;-74
2021/01/20 04:14:24;;;;;;;6.63;5.80;;;;;;;-1.71;100.00;97458.09;5008300;28;20697;-72
2021/01/20 04:16:51;;;;;;;6.70;6.03;;;;;;;-1.71;100.00;97458.09;5006206;28;20207;-75
2021/01/20 04:19:18;;;;;;;6.07;5.57;;;;;;;-1.60;100.00;97460.81;5006733;28;20290;-74
2021/01/20 04:21:45;;;;;;;6.10;5.33;;;;;;;-1.58;100.00;97465.09;5003740;28;20586;-74
2021/01/20 04:24:15;;;;;;;5.27;4.77;;;;;;;-1.55;100.00;97463.13;5000355;28;20684;-74
2021/01/20 04:26:42;;;;;;;5.73;5.23;;;;;;;-1.51;100.00;97453.38;5006148;28;20213;-74
2021/01/20 04:29:09;;;;;;;6.30;5.70;;;;;;;-1.48;100.00;97458.38;4998815;28;20221;-75
2021/01/20 04:31:37;;;;;;;6.10;5.50;;;;;;;-1.51;100.00;97456.78;4999472;28;20584;-73
2021/01/20 04:34:04;;;;;;;6.57;5.90;;;;;;;-1.56;100.00;97460.63;5011065;28;20220;-75
2021/01/20 04:36:31;;;;;;;5.83;5.43;;;;;;;-1.57;100.00;97457.19;5001765;28;20209;-74
2021/01/20 04:38:58;;;;;;;6.10;5.50;;;;;;;-1.65;100.00;97454.28;5000410;28;20531;-74
2021/01/20 04:41:26;;;;;;;6.40;5.80;;;;;;;-1.62;100.00;97461.88;4999580;28;20205;-73
2021/01/20 04:43:53;;;;;;;5.83;5.27;;;;;;;-1.72;100.00;97456.44;5002003;28;20591;-75
2021/01/20 04:46:20;;;;;;;6.03;5.17;;;;;;;-1.74;100.00;97460.91;4995859;28;20202;-74
2021/01/20 04:48:49;;;;;;;6.00;5.50;;;;;;;-1.72;100.00;97453.84;5005946;28;20300;-74
2021/01/20 04:51:19;;;;;;;5.80;5.40;;;;;;;-1.71;100.00;97457.25;5006532;28;20209;-74
2021/01/20 04:53:46;;;;;;;5.60;5.13;;;;;;;-1.78;100.00;97456.84;5004050;28;20247;-74
2021/01/20 04:56:13;;;;;;;6.07;5.47;;;;;;;-1.68;100.00;97451.88;5004095;28;20252;-74
2021/01/20 04:58:41;;;;;;;6.47;5.80;;;;;;;-1.70;100.00;97453.75;5000441;28;20213;-73
2021/01/20 05:01:07;;;;;;;6.00;5.40;;;;;;;-1.79;100.00;97453.41;5000454;28;20209;-74
2021/01/20 05:03:35;;;;;;;5.90;5.43;;;;;;;-1.62;100.00;97451.47;4999272;28;20240;-74
2021/01/20 05:06:03;;;;;;;6.00;5.50;;;;;;;-1.73;100.00;97446.97;5007011;28;20205;-77
2021/01/20 05:08:30;;;;;;;5.50;5.00;;;;;;;-1.77;100.00;97445.53;5007645;28;20247;-75
2021/01/20 05:10:58;;;;;;;5.43;4.93;;;;;;;-1.77;100.00;97446.34;5004690;28;20943;-77
2021/01/20 05:13:27;;;;;;;6.87;5.67;;;;;;;-1.73;100.00;97441.78;5002269;28;20239;-76
2021/01/20 05:15:54;;;;;;;6.80;6.20;;;;;;;-1.77;100.00;97445.53;5007982;28;20230;-78
2021/01/20 05:18:21;;;;;;;6.07;5.57;;;;;;;-1.64;100.00;97446.38;5003449;28;20452;-69
2021/01/20 05:20:49;;;;;;;9.27;5.87;;;;;;;-1.55;100.00;97444.94;4999349;28;20223;-70
2021/01/20 05:23:17;;;;;;;5.87;5.37;;;;;;;-1.58;100.00;97441.69;4997982;28;20709;-70
2021/01/20 05:25:46;;;;;;;5.70;5.30;;;;;;;-1.61;100.00;97437.56;5000787;28;20205;-71
2021/01/20 05:28:21;;;;;;;5.47;4.97;;;;;;;-1.64;100.00;97428.19;4999919;28;20448;-70
2021/01/20 05:30:50;;;;;;;6.00;5.50;;;;;;;-1.52;100.00;97434.34;5012279;28;20514;-69
2021/01/20 05:33:18;;;;;;;6.10;5.47;;;;;;;-1.58;100.00;97428.72;5006184;28;20471;-70
2021/01/20 05:35:46;;;;;;;5.77;5.07;;;;;;;-1.55;100.00;97424.16;5008237;28;21173;-70
2021/01/20 05:38:14;;;;;;;7.57;5.97;;;;;;;-1.52;100.00;97425.69;4997798;28;20206;-71
2021/01/20 05:40:42;;;;;;;5.73;5.20;;;;;;;-1.45;100.00;97426.97;4999695;28;21215;-67
2021/01/20 05:43:09;;;;;;;6.10;5.40;;;;;;;-1.51;100.00;97430.81;5008526;28;20232;-71
2021/01/20 05:45:45;;;;;;;5.87;5.37;;;;;;;-1.51;100.00;97432.59;4995694;28;20224;-70
2021/01/20 05:48:12;;;;;;;5.93;5.23;;;;;;;-1.54;100.00;97423.22;4998743;28;20299;-75
2021/01/20 05:50:56;;;;;;;6.00;5.50;;;;;;;-1.57;100.00;97426.03;4996686;28;20213;-76
2021/01/20 05:53:23;;;;;;;5.53;5.03;;;;;;;-1.70;100.00;97418.19;5005349;28;20225;-73
2021/01/20 05:56:02;;;;;;;5.80;5.33;;;;;;;-1.67;100.00;97436.19;5009772;28;20490;-74
2021/01/20 05:58:39;;;;;;;5.37;4.97;;;;;;;-1.68;100.00;97433.69;5006763;28;20291;-76
2021/01/20 06:01:07;;;;;;;6.00;5.40;;;;;;;-1.62;100.00;97428.09;5009015;28;20202;-75
2021/01/20 06:03:35;;;;;;;6.20;5.60;;;;;;;-1.67;100.00;97436.19;5007564;28;20318;-75
2021/01/20 06:06:05;;;;;;;6.00;5.50;;;;;;;-1.75;100.00;97441.88;5004615;28;20219;-76
2021/01/20 06:08:34;;;;;;;5.87;5.20;;;;;;;-1.79;100.00;97429.19;5012129;28;20576;-76
2021/01/20 06:11:02;;;;;;;5.30;4.80;;;;;;;-1.71;100.00;97437.31;4996960;28;20208;-74
2021/01/20 06:13:29;;;;;;;5.93;5.43;;;;;;;-1.71;100.00;97426.09;4996813;28;20236;-75
2021/01/20 06:15:58;;;;;;;5.73;5.30;;;;;;;-1.77;100.00;97422.97;4996889;28;20571;-76
2021/01/20 06:18:32;;;;;;;5.67;5.10;;;;;;;-1.75;100.00;97423.69;5004640;28;20212;-73
2021/01/20 06:20:59;;;;;;;6.83;6.07;;;;;;;-1.71;100.00;97426.09;5001649;28;20212;-75
2021/01/20 06:23:26;;;;;;;6.10;5.60;;;;;;;-1.73;100.00;97431.41;4999557;28;20225;-75
2021/01/20 06:25:58;;;;;;;5.40;5.00;;;;;;;-1.68;100.00;97424.13;4999709;28;20452;-73
2021/01/20 06:28:26;;;;;;;5.33;4.93;;;;;;;-1.74;100.00;97421.94;5008114;28;20462;-75
2021/01/20 06:30:54;;;;;;;6.27;5.67;;;;;;;-1.69;100.00;97413.84;5003314;28;20205;-75
2021/01/20 06:33:21;;;;;;;5.60;5.20;;;;;;;-1.76;100.00;97416.00;5005422;28;20231;-75
2021/01/20 06:35:50;;;;;;;5.30;4.77;;;;;;;-1.70;100.00;97410.41;5004426;28;20717;-74
2021/01/20 06:38:36;;;;;;;6.20;5.67;;;;;;;-1.34;100.00;97414.09;5007006;28;20237;-72
2021/01/20 06:41:07;;;;;;;6.83;5.63;;;;;;;-1.46;100.00;97409.72;5003925;28;20208;-73
2021/01/20 06:43:45;;;;;;;5.87;5.37;;;;;;;-1.60;100.00;97411.44;5010205;28;20239;-76
2021/01/20 06:46:18;;;;;;;6.90;6.17;;;;;;;-1.69;100.00;97411.25;5000384;28;20211;-74
2021/01/20 06:49:16;;;;;;;7.17;6.47;;;;;;;-1.68;100.00;97413.72;5013690;28;20200;-73
2021/01/20 06:52:07;;;;;;;5.87;5.37;;;;;;;-1.71;100.00;97407.91;5006914;28;20471;-74
2021/01/20 06:54:35;;;;;;;6.27;5.67;;;;;;;-1.72;100.00;97414.03;5006888;28;20296;-77
2021/01/20 06:57:02;;;;;;;6.00;5.60;;;;;;;-1.79;100.00;97409.25;5012991;28;20209;-74
2021/01/20 06:59:30;;;;;;;6.33;5.40;;;;;;;-1.82;100.00;97414.63;5001127;28;20215;-74
2021/01/20 07:02:14;;;;;;;6.57;5.97;;;;;;;-1.83;100.00;97412.16;5017023;28;20216;-74
2021/01/20 07:05:09;;;;;;;5.47;5.07;;;;;;;-1.82;100.00;97416.41;5002824;28;20201;-74
2021/01/20 07:08:07;;;;;;;5.90;5.40;;;;;;;-1.85;100.00;97411.44;5009206;28;20206;-74
2021/01/20 07:11:07;;;;;;;5.63;5.10;;;;;;;-1.83;100.00;97414.75;5011605;28;20210;-74
2021/01/20 07:13:43;;;;;;;6.20;5.70;;;;;;;-1.72;100.00;97414.03;5009355;28;20270;-73
2021/01/20 07:16:12;;;;;;;5.90;5.40;;;;;;;-1.74;100.00;97416.75;5006495;28;20229;-74
2021/01/20 07:18:41;;;;;;;5.63;5.10;;;;;;;-1.80;100.00;97407.56;5012941;28;20209;-77
2021/01/20 07:21:08;;;;;;;5.60;4.97;;;;;;;-1.69;100.00;97416.44;5002269;28;20316;-74
2021/01/20 07:23:39;;;;;;;5.50;5.00;;;;;;;-1.71;100.00;97406.16;5001071;28;20229;-73
2021/01/20 07:26:06;;;;;;;5.03;4.63;;;;;;;-1.69;100.00;97408.66;5013305;28;20204;-73
2021/01/20 07:28:34;;;;;;;5.63;5.23;;;;;;;-1.86;100.00;97412.34;5016954;28;20200;-75
2021/01/20 07:31:06;;;;;;;5.70;5.20;;;;;;;-1.76;100.00;97406.44;5016686;28;20458;-75
2021/01/20 07:33:34;;;;;;;7.13;6.53;;;;;;;-1.77;100.00;97404.78;5004259;28;20230;-75
2021/01/20 07:36:16;;;;;;;5.93;5.43;;;;;;;-1.67;100.00;97399.00;5009508;28;20220;-73
2021/01/20 07:38:47;;;;;;;4.97;4.60;;;;;;;-1.50;100.00;97405.66;5012838;28;20685;-73
2021/01/20 07:41:19;;;;;;;5.63;5.13;;;;;;;-1.37;100.00;97405.66;5001095;28;20636;-75
2021/01/20 07:43:50;;;;;;;5.53;5.03;;;;;;;-1.31;100.00;97410.47;5011226;28;20651;-75
2021/01/20 07:46:20;;;;;;;5.40;4.97;;;;;;;-1.26;100.00;97403.16;5003182;28;20296;-75
2021/01/20 07:48:49;;;;;;;5.70;5.20;;;;;;;-1.20;100.00;97402.75;5012833;28;20219;-75
2021/01/20 07:51:18;;;;;;;5.30;4.90;;;;;;;-1.23;100.00;97405.56;5006085;28;20444;-73
2021/01/20 07:54:00;;;;;;;4.93;4.57;;;;;;;-1.12;100.00;97396.19;5013005;28;20247;-74
2021/01/20 07:56:28;;;;;;;5.70;5.20;;;;;;;-1.07;100.00;97399.31;4992593;28;20258;-73
2021/01/20 07:58:55;;;;;;;5.90;5.40;;;;;;;-0.99;100.00;97396.19;5008441;28;20213;-75
2021/01/20 08:01:26;;;;;;;5.07;4.63;;;;;;;-1.02;100.00;97397.22;5000567;28;20451;-74
2021/01/20 08:03:56;;;;;;;4.67;4.33;;;;;;;-0.99;100.00;97398.78;5005435;28;20221;-74
2021/01/20 08:06:23;;;;;;;5.47;5.07;;;;;;;-0.88;100.00;97391.91;5010466;28;20297;-75
2021/01/20 08:08:51;;;;;;;4.80;4.50;;;;;;;-0.94;100.00;97396.69;5004355;28;20226;-75
2021/01/20 08:11:19;;;;;;;5.90;5.33;;;;;;;-0.98;100.00;97397.84;5008651;28;20214;-75
2021/01/20 08:13:46;;;;;;;4.90;4.50;;;;;;;-0.90;100.00;97398.13;5006783;28;20720;-75
2021/01/20 08:16:14;;;;;;;5.00;4.53;;;;;;;-0.72;100.00;97398.63;4999614;28;20239;-76
2021/01/20 08:18:45;;;;;;;4.37;4.03;;;;;;;-0.69;100.00;97402.78;5002042;28;20201;-75
2021/01/20 08:21:13;;;;;;;5.70;5.20;;;;;;;-0.63;100.00;97397.97;4999693;28;20937;-76
2021/01/20 08:23:49;;;;;;;5.60;5.20;;;;;;;-0.47;100.00;97396.91;5010426;28;20632;-76
2021/01/20 08:26:23;;;;;;;5.53;5.13;;;;;;;-0.45;100.00;97384.59;5004084;28;20208;-78
2021/01/20 08:29:07;;;;;;;5.50;5.00;;;;;;;-0.47;100.00;97389.09;5005428;28;20228;-76
2021/01/20 08:31:35;;;;;;;5.40;5.00;;;;;;;-0.27;100.00;97390.25;5008892;28;20300;-75
2021/01/20 08:34:20;;;;;;;5.03;4.63;;;;;;;-0.25;100.00;97388.38;4997356;28;20216;-75
2021/01/20 08:37:00;;;;;;;5.60;5.20;;;;;;;-0.14;100.00;97390.22;5011818;28;20230;-75
2021/01/20 08:39:28;;;;;;;6.27;5.10;;;;;;;-0.14;100.00;97390.22;4998018;28;20209;-74
2021/01/20 08:42:14;;;;;;;5.57;5.10;;;;;;;0.10;100.00;97397.16;5001604;28;20225;-74
2021/01/20 08:44:41;;;;;;;5.60;5.10;;;;;;;0.10;100.00;97391.94;5009328;28;20213;-74
2021/01/20 08:47:09;;;;;;;5.17;4.77;;;;;;;0.20;100.00;97398.16;5002070;28;20217;-76
2021/01/20 08:49:37;;;;;;;5.57;5.13;;;;;;;0.20;100.00;97392.09;5003334;28;20212;-74
2021/01/20 08:52:05;;;;;;;6.00;5.40;;;;;;;0.25;100.00;97392.59;5006732;28;20235;-74
2021/01/20 08:54:35;;;;;;;5.83;5.23;;;;;;;0.44;98.73;97397.25;5003999;28;20576;-75
2021/01/20 08:57:15;;;;;;;4.93;4.53;;;;;;;0.50;98.92;97394.19;4998649;28;20481;-75
2021/01/20 08:59:53;;;;;;;6.03;5.47;;;;;;;0.66;98.03;97387.84;4999760;28;20213;-76
2021/01/20 09:02:20;;;;;;;5.10;4.70;;;;;;;0.76;96.04;97386.19;5004813;28;20656;-75
2021/01/20 09:04:48;;;;;;;5.97;5.47;;;;;;;0.96;94.62;97387.25;5004342;28;20203;-76
2021/01/20 09:07:16;;;;;;;5.47;5.03;;;;;;;1.13;93.68;97391.19;5009821;28;20201;-75
2021/01/20 09:09:43;;;;;;;4.90;4.40;;;;;;;1.24;92.24;97387.72;5012962;28;20212;-74
2021/01/20 09:12:11;;;;;;;4.97;4.57;;;;;;;1.21;93.31;97384.53;5002884;28;20232;-77
2021/01/20 09:14:39;;;;;;;5.73;4.30;;;;;;;1.29;92.17;97387.34;5006061;28;20205;-77
2021/01/20 09:17:06;;;;;;;4.60;4.30;;;;;;;1.42;90.69;97385.47;5002795;28;20223;-72
2021/01/20 09:19:34;;;;;;;3.73;3.53;;;;;;;1.51;91.09;97375.22;5006616;28;20205;-74
2021/01/20 09:22:01;;;;;;;4.10;3.87;;;;;;;1.48;90.97;97375.47;5007716;28;20799;-76
2021/01/20 09:24:29;;;;;;;5.07;4.63;;;;;;;1.54;91.90;97382.81;5006911;28;20590;-73
2021/01/20 09:26:56;;;;;;;5.17;4.77;;;;;;;1.65;91.59;97387.19;5012977;28;20204;-77
2021/01/20 09:29:27;;;;;;;4.77;4.37;;;;;;;1.84;89.41;97394.38;5008122;28;20215;-75
2021/01/20 09:31:56;;;;;;;4.70;4.30;;;;;;;1.83;88.48;97383.09;5006293;28;20554;-75
2021/01/20 09:34:24;;;;;;;4.17;3.87;;;;;;;1.97;87.49;97381.16;4997461;28;20211;-73
2021/01/20 09:36:51;;;;;;;5.00;4.60;;;;;;;2.15;86.33;97371.78;5004829;28;20224;-74
2021/01/20 09:39:18;;;;;;;4.50;4.20;;;;;;;2.20;84.60;97374.03;5000678;28;20546;-76
2021/01/20 09:41:46;;;;;;;4.50;4.10;;;;;;;2.37;84.22;97369.19;5003908;28;20219;-75
2021/01/20 09:44:13;;;;;;;3.97;3.67;;;;;;;2.35;84.02;97371.94;5000134;28;20236;-74
2021/01/20 09:46:40;;;;;;;3.73;3.43;;;;;;;2.41;83.25;97367.97;5007486;28;20200;-75
2021/01/20 09:49:07;;;;;;;4.67;4.10;;;;;;;2.54;82.77;97365.16;4998717;28;20327;-77
2021/01/20 09:51:34;;;;;;;4.67;4.23;;;;;;;2.70;83.10;97367.31;5006149;28;20583;-74
2021/01/20 09:54:01;;;;;;;4.23;3.87;;;;;;;2.67;83.23;97363.19;5005508;28;20428;-75
2021/01/20 09:56:28;;;;;;;4.47;4.07;;;;;;;2.91;81.04;97356.00;4997487;28;20241;-76
2021/01/20 09:58:56;;;;;;;4.27;3.97;;;;;;;2.97;80.16;97358.09;5010092;28;20208;-74
2021/01/20 10:01:23;;;;;;;4.80;4.37;;;;;;;3.07;80.44;97363.38;5001863;28;20201;-75
2021/01/20 10:03:51;;;;;;;4.77;4.13;;;;;;;3.07;80.66;97355.53;5000465;28;20232;-74
2021/01/20 10:06:18;;;;;;;3.83;3.53;;;;;;;3.15;79.26;97347.81;5005865;28;20221;-75
2021/01/20 10:08:45;;;;;;;4.07;3.77;;;;;;;3.14;77.25;97352.22;5016695;28;20221;-74
2021/01/20 10:11:12;;;;;;;4.07;3.73;;;;;;;3.17;77.95;97340.66;5015926;28;20212;-77
2021/01/20 10:13:39;;;;;;;4.07;3.77;;;;;;;3.17;79.33;97338.03;5004918;28;20335;-75
2021/01/20 10:16:07;;;;;;;4.23;3.60;;;;;;;3.24;77.59;97338.34;5014561;28;20228;-77
2021/01/20 10:18:34;;;;;;;4.13;3.77;;;;;;;3.39;77.30;97329.13;5000578;28;20215;-75
2021/01/20 10:21:01;;;;;;;4.13;3.77;;;;;;;3.49;76.67;97329.16;5009821;28;20681;-74
2021/01/20 10:23:28;;;;;;;5.23;3.70;;;;;;;3.56;76.77;97322.41;5008632;28;20948;-77
2021/01/20 10:25:55;;;;;;;4.50;3.93;;;;;;;3.72;76.16;97318.41;5004144;28;20228;-76
2021/01/20 10:28:22;;;;;;;4.47;4.10;;;;;;;3.91;74.78;97307.09;5007330;28;20205;-74
2021/01/20 10:30:52;;;;;;;4.20;3.90;;;;;;;4.07;74.46;97308.34;5004839;28;20216;-75
2021/01/20 10:33:20;;;;;;;5.40;4.90;;;;;;;4.02;74.80;97303.50;5007120;28;20678;-74
2021/01/20 10:35:47;;;;;;;4.23;3.93;;;;;;;4.14;74.74;97293.72;5012977;28;20231;-75
2021/01/20 10:38:14;;;;;;;4.03;3.70;;;;;;;4.38;72.70;97287.19;5012800;28;20208;-74
2021/01/20 10:40:41;;;;;;;6.10;4.13;;;;;;;4.42;71.29;97276.25;5005208;28;20657;-75
2021/01/20 10:43:08;;;;;;;3.67;3.37;;;;;;;4.53;71.07;97272.63;5004963;28;20236;-74
2021/01/20 10:45:35;;;;;;;3.70;3.40;;;;;;;4.66;71.16;97271.47;5003768;28;20209;-77
2021/01/20 10:48:11;;;;;;;3.90;3.60;;;;;;;4.74;70.40;97276.84;5013831;28;20261;-74
2021/01/20 10:50:39;;;;;;;3.87;3.57;;;;;;;4.99;69.12;97280.59;5005795;28;20241;-75
2021/01/20 10:53:06;;;;;;;4.17;3.80;;;;;;;5.07;69.67;97261.44;5003119;28;20637;-77
2021/01/20 10:55:33;;;;;;;4.07;3.13;;;;;;;5.28;67.04;97266.44;5006343;28;20229;-73
2021/01/20 10:58:00;;;;;;;3.90;3.60;;;;;;;5.47;67.31;97262.03;5008027;28;20224;-73
2021/01/20 11:00:27;;;;;;;3.40;3.20;;;;;;;5.62;63.83;97259.72;5007584;28;20344;-73
2021/01/20 11:02:54;;;;;;;3.97;3.63;;;;;;;5.65;65.20;97248.91;5010422;28;20609;-74
2021/01/20 11:05:21;;;;;;;4.53;3.17;;;;;;;5.78;64.32;97253.78;5004315;28;20316;-74
2021/01/20 11:07:49;;;;;;;4.30;3.50;;;;;;;5.91;64.69;97248.94;5005619;28;20209;-75
2021/01/20 11:10:16;;;;;;;3.13;2.93;;;;;;;6.02;62.77;97244.44;5006184;28;20378;-74
2021/01/20 11:12:43;;;;;;;3.30;3.10;;;;;;;5.94;63.00;97240.75;5003814;28;20244;-74
2021/01/20 11:15:11;;;;;;;3.10;2.90;;;;;;;5.92;62.74;97236.63;5004300;28;20612;-73
2021/01/20 11:17:39;;;;;;;3.43;3.23;;;;;;;5.85;62.15;97232.94;5007895;28;20211;-73
2021/01/20 11:20:06;;;;;;;3.60;3.30;;;;;;;6.07;62.73;97227.22;5005463;28;20201;-73
2021/01/20 11:22:34;;;;;;;3.13;2.90;;;;;;;6.20;63.97;97218.09;5008227;28;20228;-74
2021/01/20 11:25:01;;;;;;;3.60;3.23;;;;;;;6.39;62.04;97214.41;5000299;28;20201;-73
2021/01/20 11:27:29;;;;;;;3.83;3.53;;;;;;;6.43;62.57;97213.09;5001841;28;20585;-74
2021/01/20 11:29:56;;;;;;;3.90;2.87;;;;;;;6.48;63.43;97208.22;5001290;28;20208;-74
2021/01/20 11:32:22;;;;;;;3.10;2.90;;;;;;;6.52;61.87;97200.81;5000728;28;20223;-72
2021/01/20 11:34:50;;;;;;;3.00;2.70;;;;;;;6.73;60.11;97196.97;5013956;28;20208;-74
2021/01/20 11:37:17;;;;;;;2.90;2.70;;;;;;;6.72;59.54;97193.50;5007245;28;20228;-73